createdAt,value
2022-11-06T00:00:39.077Z,5.60
2022-11-06T00:03:07.005Z,4.73
2022-11-06T00:05:54.322Z,4.70
2022-11-06T00:08:29.056Z,4.90
2022-11-06T00:10:56.551Z,4.67
2022-11-06T00:13:24.018Z,4.60
2022-11-06T00:15:51.575Z,4.00
2022-11-06T00:18:19.002Z,4.60
2022-11-06T00:20:47.845Z,4.60
2022-11-06T00:23:15.257Z,4.20
2022-11-06T00:25:43.019Z,4.50
2022-11-06T00:28:10.832Z,4.37
2022-11-06T00:30:38.680Z,4.10
2022-11-06T00:33:06.088Z,4.00
2022-11-06T00:35:33.470Z,4.40
2022-11-06T00:38:02.259Z,3.57
2022-11-06T00:40:29.857Z,3.90
2022-11-06T00:42:57.430Z,4.20
2022-11-06T00:45:25.259Z,4.27
2022-11-06T00:47:52.773Z,3.93
2022-11-06T00:50:20.354Z,3.83
2022-11-06T00:52:47.789Z,4.00
2022-11-06T00:55:16.736Z,3.87
2022-11-06T00:57:44.153Z,3.90
2022-11-06T01:00:12.242Z,4.67
2022-11-06T01:02:39.843Z,4.20
2022-11-06T01:05:07.643Z,4.20
2022-11-06T01:07:35.004Z,3.80
2022-11-06T01:10:02.392Z,4.10
2022-11-06T01:12:32.965Z,3.97
2022-11-06T01:15:00.401Z,3.87
2022-11-06T01:17:28.825Z,4.03
2022-11-06T01:19:56.225Z,4.00
2022-11-06T01:22:23.708Z,3.80
2022-11-06T01:24:51.185Z,4.20
2022-11-06T01:27:27.363Z,3.70
2022-11-06T01:29:56.806Z,4.13
2022-11-06T01:32:24.357Z,4.10
2022-11-06T01:34:52.149Z,4.20
2022-11-06T01:37:19.577Z,3.73
2022-11-06T01:39:46.983Z,3.80
2022-11-06T01:42:20.622Z,4.00
2022-11-06T01:45:16.624Z,3.90
2022-11-06T01:47:44.538Z,3.90
2022-11-06T01:50:12.630Z,4.10
2022-11-06T01:52:40.395Z,3.83
2022-11-06T01:55:09.334Z,3.57
2022-11-06T01:57:36.858Z,3.80
2022-11-06T02:00:05.401Z,4.17
2022-11-06T02:02:34.400Z,3.17
2022-11-06T02:05:01.946Z,4.00
2022-11-06T02:07:29.566Z,3.77
2022-11-06T02:09:56.993Z,3.83
2022-11-06T02:12:30.481Z,4.37
2022-11-06T02:15:01.709Z,5.23
2022-11-06T02:17:37.284Z,3.83
2022-11-06T02:20:07.903Z,3.63
2022-11-06T02:22:55.946Z,3.50
2022-11-06T02:25:27.018Z,3.90
2022-11-06T02:28:03.150Z,3.80
2022-11-06T02:30:31.858Z,3.20
2022-11-06T02:33:00.697Z,3.73
2022-11-06T02:35:30.597Z,3.40
2022-11-06T02:37:59.976Z,3.53
2022-11-06T02:40:29.110Z,3.80
2022-11-06T02:42:58.626Z,3.30
2022-11-06T02:45:26.780Z,3.63
2022-11-06T02:47:55.974Z,3.03
2022-11-06T02:50:25.478Z,3.60
2022-11-06T02:52:54.242Z,3.40
2022-11-06T02:55:25.028Z,3.40
2022-11-06T02:57:54.496Z,3.20
2022-11-06T03:00:25.211Z,3.30
2022-11-06T03:02:55.174Z,3.50
2022-11-06T03:05:24.921Z,3.40
2022-11-06T03:07:54.890Z,3.30
2022-11-06T03:10:24.980Z,3.10
2022-11-06T03:12:56.675Z,3.70
2022-11-06T03:15:28.578Z,3.30
2022-11-06T03:18:00.787Z,3.47
2022-11-06T03:20:30.997Z,3.43
2022-11-06T03:23:04.059Z,3.30
2022-11-06T03:25:36.490Z,3.20
2022-11-06T03:28:06.486Z,2.90
2022-11-06T03:30:37.495Z,2.83
2022-11-06T03:33:09.179Z,3.40
2022-11-06T03:35:39.690Z,2.80
2022-11-06T03:38:09.563Z,2.80
2022-11-06T03:40:39.291Z,2.60
2022-11-06T03:43:09.316Z,3.20
2022-11-06T03:45:39.881Z,2.80
2022-11-06T03:48:11.581Z,3.13
2022-11-06T03:50:41.382Z,2.90
2022-11-06T03:53:10.979Z,3.10
2022-11-06T03:55:40.611Z,2.70
2022-11-06T03:58:09.748Z,3.13
2022-11-06T04:00:40.154Z,3.40
2022-11-06T04:03:11.020Z,3.27
2022-11-06T04:05:40.710Z,3.00
2022-11-06T04:08:26.590Z,3.30
2022-11-06T04:11:13.907Z,2.93
2022-11-06T04:14:02.060Z,3.00
2022-11-06T04:16:34.080Z,2.70
2022-11-06T04:19:01.530Z,3.00
2022-11-06T04:21:33.966Z,2.63
2022-11-06T04:24:22.814Z,2.90
2022-11-06T04:26:57.330Z,2.90
2022-11-06T04:29:31.041Z,3.60
2022-11-06T04:32:05.236Z,2.90
2022-11-06T04:34:36.293Z,2.90
2022-11-06T04:37:08.313Z,2.80
2022-11-06T04:39:38.792Z,2.77
2022-11-06T04:42:07.860Z,2.60
2022-11-06T04:44:38.347Z,2.83
2022-11-06T04:47:08.405Z,2.70
2022-11-06T04:49:37.639Z,2.70
2022-11-06T04:52:07.271Z,2.50
2022-11-06T04:54:35.713Z,2.80
2022-11-06T04:57:03.518Z,2.53
2022-11-06T04:59:33.374Z,2.70
2022-11-06T05:02:00.817Z,2.57
2022-11-06T05:04:29.705Z,2.67
2022-11-06T05:06:57.136Z,2.67
2022-11-06T05:09:25.258Z,2.80
2022-11-06T05:11:52.646Z,2.40
2022-11-06T05:14:20.046Z,2.73
2022-11-06T05:16:47.442Z,2.60
2022-11-06T05:19:14.862Z,2.70
2022-11-06T05:22:00.953Z,2.90
2022-11-06T05:24:28.615Z,3.07
2022-11-06T05:26:59.277Z,2.83
2022-11-06T05:29:27.303Z,2.70
2022-11-06T05:31:54.751Z,3.07
2022-11-06T05:34:22.168Z,2.87
2022-11-06T05:36:50.940Z,2.63
2022-11-06T05:39:18.401Z,2.70
2022-11-06T05:41:45.788Z,2.50
2022-11-06T05:44:13.297Z,2.70
2022-11-06T05:46:48.693Z,2.80
2022-11-06T05:49:16.873Z,2.80
2022-11-06T05:51:44.292Z,2.90
2022-11-06T05:54:13.081Z,2.90
2022-11-06T05:56:40.459Z,2.63
2022-11-06T05:59:07.849Z,3.10
2022-11-06T06:01:35.581Z,2.47
2022-11-06T06:04:03.042Z,2.90
2022-11-06T06:06:30.428Z,2.30
2022-11-06T06:08:57.829Z,2.60
2022-11-06T06:11:26.599Z,2.20
2022-11-06T06:13:53.996Z,2.10
2022-11-06T06:16:21.391Z,2.17
2022-11-06T06:18:49.836Z,2.10
2022-11-06T06:21:17.231Z,1.90
2022-11-06T06:23:44.599Z,2.20
2022-11-06T06:26:11.985Z,2.27
2022-11-06T06:28:40.746Z,2.37
2022-11-06T06:31:09.730Z,2.10
2022-11-06T06:33:37.178Z,2.20
2022-11-06T06:36:04.944Z,2.23
2022-11-06T06:38:32.466Z,2.50
2022-11-06T06:41:03.323Z,2.53
2022-11-06T06:43:30.893Z,2.50
2022-11-06T06:46:00.344Z,2.30
2022-11-06T06:48:27.956Z,2.23
2022-11-06T06:50:57.560Z,2.20
2022-11-06T06:53:24.969Z,2.20
2022-11-06T06:55:52.415Z,2.10
2022-11-06T06:58:20.682Z,2.30
2022-11-06T07:00:48.407Z,2.47
2022-11-06T07:03:17.208Z,2.80
2022-11-06T07:05:44.606Z,2.30
2022-11-06T07:08:12.323Z,2.70
2022-11-06T07:10:40.087Z,2.57
2022-11-06T07:13:07.519Z,2.20
2022-11-06T07:15:34.884Z,2.10
2022-11-06T07:18:02.616Z,2.07
2022-11-06T07:20:31.417Z,2.20
2022-11-06T07:22:59.020Z,2.50
2022-11-06T07:25:26.925Z,2.57
2022-11-06T07:27:57.980Z,2.17
2022-11-06T07:30:29.127Z,2.40
2022-11-06T07:32:56.512Z,2.63
2022-11-06T07:35:23.936Z,2.80
2022-11-06T07:37:52.686Z,2.90
2022-11-06T07:40:20.176Z,2.60
2022-11-06T07:42:47.609Z,2.60
2022-11-06T07:45:15.129Z,2.73
2022-11-06T07:47:42.553Z,2.47
2022-11-06T07:50:10.113Z,2.80
2022-11-06T07:52:37.498Z,3.10
2022-11-06T07:55:07.078Z,3.13
2022-11-06T07:57:36.562Z,2.57
2022-11-06T08:00:04.725Z,3.00
2022-11-06T08:02:32.217Z,3.83
2022-11-06T08:04:59.705Z,2.77
2022-11-06T08:07:27.339Z,2.90
2022-11-06T08:09:54.766Z,3.90
2022-11-06T08:12:23.475Z,3.50
2022-11-06T08:14:50.910Z,2.90
2022-11-06T08:17:18.351Z,3.00
2022-11-06T08:19:45.717Z,3.70
2022-11-06T08:22:13.131Z,3.63
2022-11-06T08:24:40.523Z,3.77
2022-11-06T08:27:07.924Z,2.83
2022-11-06T08:29:41.030Z,2.53
2022-11-06T08:32:09.093Z,3.50
2022-11-06T08:34:36.675Z,3.20
2022-11-06T08:37:04.093Z,3.43
2022-11-06T08:39:31.650Z,4.07
2022-11-06T08:41:59.046Z,3.20
2022-11-06T08:44:26.476Z,5.77
2022-11-06T08:46:55.218Z,3.47
2022-11-06T08:49:22.638Z,3.10
2022-11-06T08:51:50.035Z,3.53
2022-11-06T08:54:17.470Z,3.40
2022-11-06T08:56:44.922Z,3.60
2022-11-06T08:59:12.301Z,3.30
2022-11-06T09:01:39.761Z,3.93
2022-11-06T09:04:08.627Z,4.20
2022-11-06T09:06:36.054Z,3.17
2022-11-06T09:09:03.446Z,3.57
2022-11-06T09:11:30.834Z,3.40
2022-11-06T09:13:58.738Z,3.03
2022-11-06T09:16:27.347Z,3.40
2022-11-06T09:18:55.028Z,3.00
2022-11-06T09:21:23.842Z,3.53
2022-11-06T09:23:51.259Z,3.40
2022-11-06T09:26:18.720Z,3.10
2022-11-06T09:28:47.004Z,3.10
2022-11-06T09:31:14.443Z,2.97
2022-11-06T09:33:41.854Z,5.20
2022-11-06T09:36:09.666Z,3.40
2022-11-06T09:38:38.417Z,3.27
2022-11-06T09:41:06.519Z,2.93
2022-11-06T09:44:04.577Z,2.80
2022-11-06T09:46:34.957Z,2.47
2022-11-06T09:49:06.656Z,3.30
2022-11-06T09:51:37.050Z,5.43
2022-11-06T09:54:08.599Z,9.10
2022-11-06T09:56:39.741Z,3.50
2022-11-06T09:59:10.967Z,5.03
2022-11-06T10:01:41.910Z,3.50
2022-11-06T10:04:15.727Z,3.17
2022-11-06T10:06:43.180Z,3.63
2022-11-06T10:09:13.138Z,3.27
2022-11-06T10:11:48.807Z,3.17
2022-11-06T10:14:25.156Z,2.90
2022-11-06T10:16:56.491Z,3.00
2022-11-06T10:19:26.062Z,3.37
2022-11-06T10:21:58.236Z,2.87
2022-11-06T10:24:30.057Z,3.00
2022-11-06T10:26:58.016Z,2.70
2022-11-06T10:29:39.240Z,3.30
2022-11-06T10:32:30.259Z,3.27
2022-11-06T10:35:00.733Z,2.80
2022-11-06T10:37:30.992Z,3.07
2022-11-06T10:40:00.571Z,2.83
2022-11-06T10:42:35.155Z,2.90
2022-11-06T10:45:06.851Z,2.90
2022-11-06T10:47:37.358Z,2.87
2022-11-06T10:50:05.807Z,3.30
2022-11-06T10:52:41.174Z,3.20
2022-11-06T10:55:26.603Z,2.90
2022-11-06T10:57:56.938Z,3.40
2022-11-06T11:00:24.389Z,2.90
2022-11-06T11:02:53.712Z,2.83
2022-11-06T11:05:22.078Z,2.90
2022-11-06T11:07:50.141Z,3.27
2022-11-06T11:10:29.001Z,2.80
2022-11-06T11:12:57.017Z,3.67
2022-11-06T11:15:25.353Z,3.20
2022-11-06T11:18:09.858Z,2.90
2022-11-06T11:20:38.069Z,3.13
2022-11-06T11:23:06.156Z,3.50
2022-11-06T11:25:35.030Z,3.00
2022-11-06T11:28:04.948Z,3.60
2022-11-06T11:30:32.685Z,3.97
2022-11-06T11:33:00.298Z,3.37
2022-11-06T11:35:29.352Z,3.00
2022-11-06T11:38:06.919Z,4.07
2022-11-06T11:40:36.896Z,2.87
2022-11-06T11:43:18.699Z,3.40
2022-11-06T11:45:46.102Z,3.50
2022-11-06T11:48:14.582Z,2.93
2022-11-06T11:50:42.274Z,2.70
2022-11-06T11:53:12.648Z,2.40
2022-11-06T11:55:44.307Z,2.70
2022-11-06T11:58:22.644Z,2.50
2022-11-06T12:00:52.493Z,2.40
2022-11-06T12:03:20.540Z,2.83
2022-11-06T12:05:48.083Z,2.00
2022-11-06T12:08:22.894Z,2.23
2022-11-06T12:10:51.908Z,2.43
2022-11-06T12:13:20.990Z,2.30
2022-11-06T12:15:51.023Z,1.90
2022-11-06T12:18:21.026Z,2.27
2022-11-06T12:20:52.436Z,1.93
2022-11-06T12:23:22.039Z,2.20
2022-11-06T12:25:54.181Z,2.20
2022-11-06T12:28:24.566Z,2.10
2022-11-06T12:30:55.036Z,2.10
2022-11-06T12:33:59.519Z,2.10
2022-11-06T12:36:13.689Z,2.07
2022-11-06T12:38:45.386Z,2.23
2022-11-06T12:41:14.971Z,1.70
2022-11-06T12:43:44.514Z,3.90
2022-11-06T12:46:20.513Z,2.03
2022-11-06T12:48:55.044Z,2.33
2022-11-06T12:51:26.600Z,6.23
2022-11-06T12:54:02.399Z,2.60
2022-11-06T12:56:33.980Z,2.33
2022-11-06T12:59:10.763Z,2.33
2022-11-06T13:01:43.538Z,2.10
2022-11-06T13:04:15.631Z,3.10
2022-11-06T13:07:02.707Z,1.80
2022-11-06T13:09:31.858Z,1.80
2022-11-06T13:12:06.336Z,1.97
2022-11-06T13:14:36.862Z,2.00
2022-11-06T13:17:07.056Z,1.70
2022-11-06T13:19:38.548Z,1.93
2022-11-06T13:22:12.295Z,2.20
2022-11-06T13:24:42.997Z,1.70
2022-11-06T13:27:15.269Z,1.90
2022-11-06T13:29:44.751Z,2.10
2022-11-06T13:32:14.437Z,1.60
2022-11-06T13:34:42.388Z,1.80
2022-11-06T13:37:11.628Z,2.17
2022-11-06T13:39:42.221Z,2.30
2022-11-06T13:42:14.366Z,1.90
2022-11-06T13:44:42.071Z,2.03
2022-11-06T13:47:13.715Z,1.97
2022-11-06T13:49:45.459Z,2.37
2022-11-06T13:52:15.840Z,2.17
2022-11-06T13:54:51.958Z,2.20
2022-11-06T13:57:34.263Z,2.37
2022-11-06T14:00:12.715Z,3.40
2022-11-06T14:02:51.902Z,3.10
2022-11-06T14:05:29.563Z,2.47
2022-11-06T14:07:57.299Z,3.10
2022-11-06T14:10:28.458Z,2.40
2022-11-06T14:12:55.929Z,2.33
2022-11-06T14:15:27.213Z,2.90
2022-11-06T14:17:57.205Z,2.10
2022-11-06T14:20:29.631Z,2.07
2022-11-06T14:22:57.063Z,1.97
2022-11-06T14:25:42.977Z,2.17
2022-11-06T14:28:10.787Z,2.27
2022-11-06T14:33:45.742Z,2.10
2022-11-06T14:36:26.885Z,1.90
2022-11-06T14:38:54.664Z,1.70
2022-11-06T14:41:51.568Z,2.13
2022-11-06T14:44:25.347Z,1.80
2022-11-06T14:46:55.988Z,2.80
2022-11-06T14:49:31.353Z,2.57
2022-11-06T14:52:01.265Z,2.07
2022-11-06T14:54:29.592Z,2.00
2022-11-06T14:56:57.877Z,2.00
2022-11-06T14:59:30.639Z,1.93
2022-11-06T15:01:59.499Z,2.13
2022-11-06T15:04:29.606Z,2.33
2022-11-06T15:07:07.338Z,2.17
2022-11-06T15:09:48.738Z,2.30
2022-11-06T15:12:16.160Z,2.33
2022-11-06T15:15:04.342Z,2.20
2022-11-06T15:17:35.664Z,1.70
2022-11-06T15:20:08.199Z,2.10
2022-11-06T15:22:36.911Z,2.07
2022-11-06T15:25:13.203Z,1.97
2022-11-06T15:27:43.357Z,2.03
2022-11-06T15:30:15.794Z,1.97
2022-11-06T15:32:45.799Z,2.20
2022-11-06T15:35:15.058Z,2.33
2022-11-06T15:37:43.263Z,2.00
2022-11-06T15:40:23.073Z,2.37
2022-11-06T15:42:50.488Z,2.37
2022-11-06T15:45:22.329Z,2.37
2022-11-06T15:47:57.497Z,2.20
2022-11-06T15:50:25.683Z,2.13
2022-11-06T15:52:53.412Z,2.10
2022-11-06T15:55:29.709Z,2.37
2022-11-06T15:58:06.206Z,3.80
2022-11-06T16:00:34.139Z,3.30
2022-11-06T16:03:02.277Z,2.70
2022-11-06T16:05:32.006Z,4.83
2022-11-06T16:08:00.351Z,6.10
2022-11-06T16:10:29.164Z,4.93
2022-11-06T16:12:56.893Z,5.10
2022-11-06T16:15:43.007Z,4.00
2022-11-06T16:18:13.127Z,3.17
2022-11-06T16:20:40.713Z,3.20
2022-11-06T16:23:08.125Z,4.00
2022-11-06T16:25:36.939Z,3.17
2022-11-06T16:28:05.431Z,3.00
2022-11-06T16:30:33.649Z,3.63
2022-11-06T16:33:04.053Z,3.87
2022-11-06T16:35:31.777Z,3.10
2022-11-06T16:38:40.976Z,3.80
2022-11-06T16:41:10.518Z,3.40
2022-11-06T16:43:38.131Z,6.70
2022-11-06T16:46:07.773Z,5.90
2022-11-06T16:48:36.274Z,6.27
2022-11-06T16:51:11.674Z,6.03
2022-11-06T16:53:48.659Z,7.20
2022-11-06T16:56:22.837Z,7.10
2022-11-06T16:58:52.526Z,6.13
2022-11-06T17:01:21.021Z,7.70
2022-11-06T17:03:50.190Z,2.97
2022-11-06T17:06:20.838Z,8.63
2022-11-06T17:08:57.251Z,8.60
2022-11-06T17:11:25.994Z,7.53
2022-11-06T17:13:53.432Z,6.13
2022-11-06T17:16:21.709Z,6.70
2022-11-06T17:18:49.449Z,9.40
2022-11-06T17:21:17.986Z,9.20
2022-11-06T17:23:45.774Z,5.70
2022-11-06T17:26:14.477Z,5.13
2022-11-06T17:28:43.262Z,4.47
2022-11-06T17:31:11.685Z,4.83
2022-11-06T17:33:39.203Z,5.37
2022-11-06T17:36:07.124Z,5.60
2022-11-06T17:38:34.799Z,5.00
2022-11-06T17:41:02.324Z,6.27
2022-11-06T17:43:29.725Z,6.70
2022-11-06T17:45:58.548Z,6.23
2022-11-06T17:48:25.938Z,9.10
2022-11-06T17:51:10.728Z,6.10
2022-11-06T17:53:38.131Z,5.07
2022-11-06T17:56:06.248Z,5.07
2022-11-06T17:58:34.107Z,4.90
2022-11-06T18:01:10.129Z,5.30
2022-11-06T18:03:39.696Z,4.90
2022-11-06T18:06:09.869Z,3.80
2022-11-06T18:08:37.363Z,4.70
2022-11-06T18:11:05.157Z,3.80
2022-11-06T18:13:32.685Z,4.50
2022-11-06T18:16:00.171Z,3.63
2022-11-06T18:18:29.005Z,3.90
2022-11-06T18:20:56.644Z,3.97
2022-11-06T18:23:24.210Z,4.17
2022-11-06T18:25:55.318Z,4.70
2022-11-06T18:28:22.723Z,5.60
2022-11-06T18:30:50.127Z,4.80
2022-11-06T18:33:17.641Z,5.90
2022-11-06T18:35:46.702Z,5.10
2022-11-06T18:38:15.365Z,4.67
2022-11-06T18:40:47.382Z,6.30
2022-11-06T18:43:17.753Z,4.17
2022-11-06T18:45:45.177Z,7.00
2022-11-06T18:48:15.956Z,5.40
2022-11-06T18:50:48.599Z,5.00
2022-11-06T18:53:16.381Z,4.90
2022-11-06T18:55:46.103Z,4.63
2022-11-06T18:58:13.826Z,5.20
2022-11-06T19:00:41.452Z,4.10
2022-11-06T19:03:08.849Z,4.20
2022-11-06T19:05:36.254Z,4.17
2022-11-06T19:08:05.180Z,4.10
2022-11-06T19:10:32.613Z,4.90
2022-11-06T19:13:00.000Z,3.10
2022-11-06T19:15:27.387Z,3.50
2022-11-06T19:17:55.519Z,3.60
2022-11-06T19:20:23.245Z,3.00
2022-11-06T19:22:51.303Z,3.23
2022-11-06T19:25:20.304Z,3.03
2022-11-06T19:27:48.066Z,3.30
2022-11-06T19:30:16.164Z,2.90
2022-11-06T19:32:43.911Z,2.70
2022-11-06T19:35:13.690Z,3.00
2022-11-06T19:37:41.170Z,2.27
2022-11-06T19:40:08.934Z,2.43
2022-11-06T19:42:37.860Z,2.60
2022-11-06T19:45:05.766Z,2.40
2022-11-06T19:47:33.350Z,2.60
2022-11-06T19:50:00.754Z,2.70
2022-11-06T19:52:43.311Z,2.43
2022-11-06T19:55:26.768Z,2.60
2022-11-06T19:57:58.249Z,2.50
2022-11-06T20:00:25.711Z,2.53
2022-11-06T20:02:53.138Z,2.40
2022-11-06T20:05:20.593Z,2.27
2022-11-06T20:07:48.000Z,2.20
2022-11-06T20:10:15.479Z,2.20
2022-11-06T20:12:42.944Z,2.30
2022-11-06T20:15:12.006Z,2.07
2022-11-06T20:17:39.438Z,2.10
2022-11-06T20:20:07.335Z,2.20
2022-11-06T20:22:34.730Z,2.10
2022-11-06T20:25:02.160Z,2.53
2022-11-06T20:27:29.630Z,2.13
2022-11-06T20:29:57.531Z,2.67
2022-11-06T20:32:26.278Z,2.40
2022-11-06T20:34:53.662Z,2.50
2022-11-06T20:37:21.084Z,2.00
2022-11-06T20:39:49.537Z,1.87
2022-11-06T20:42:16.938Z,2.37
2022-11-06T20:44:44.330Z,3.57
2022-11-06T20:47:11.798Z,6.23
2022-11-06T20:49:42.879Z,2.77
2022-11-06T20:52:15.135Z,2.57
2022-11-06T20:54:47.196Z,2.57
2022-11-06T20:57:15.327Z,2.40
2022-11-06T20:59:42.761Z,2.40
2022-11-06T21:02:11.598Z,2.47
2022-11-06T21:04:40.471Z,2.20
2022-11-06T21:07:07.860Z,2.40
2022-11-06T21:09:35.284Z,2.33
2022-11-06T21:12:02.725Z,2.80
2022-11-06T21:14:30.223Z,2.50
2022-11-06T21:16:57.655Z,2.07
2022-11-06T21:19:25.325Z,2.20
2022-11-06T21:21:56.632Z,2.43
2022-11-06T21:24:24.367Z,2.30
2022-11-06T21:26:54.969Z,2.13
2022-11-06T21:29:23.037Z,2.40
2022-11-06T21:31:50.643Z,2.10
2022-11-06T21:34:18.621Z,2.20
2022-11-06T21:36:46.035Z,2.30
2022-11-06T21:39:15.489Z,2.50
2022-11-06T21:41:43.266Z,2.63
2022-11-06T21:44:13.531Z,2.00
2022-11-06T21:46:45.014Z,2.20
2022-11-06T21:49:13.463Z,2.37
2022-11-06T21:51:40.991Z,2.10
2022-11-06T21:54:25.685Z,1.90
2022-11-06T21:56:54.608Z,2.30
2022-11-06T21:59:25.792Z,2.50
2022-11-06T22:01:53.282Z,4.10
2022-11-06T22:04:20.787Z,3.30
2022-11-06T22:06:48.234Z,1.97
2022-11-06T22:09:18.402Z,1.97
2022-11-06T22:11:48.238Z,2.20
2022-11-06T22:14:17.875Z,2.67
2022-11-06T22:16:46.129Z,2.17
2022-11-06T22:19:14.522Z,2.27
2022-11-06T22:21:42.549Z,1.97
2022-11-06T22:24:11.355Z,2.50
2022-11-06T22:26:38.758Z,2.00
2022-11-06T22:29:07.094Z,1.90
2022-11-06T22:31:36.139Z,1.70
2022-11-06T22:34:03.667Z,2.00
2022-11-06T22:36:31.064Z,2.30
2022-11-06T22:39:00.179Z,2.07
2022-11-06T22:41:27.598Z,2.47
2022-11-06T22:43:58.654Z,2.20
2022-11-06T22:46:26.329Z,1.80
2022-11-06T22:48:55.747Z,1.80
2022-11-06T22:51:24.598Z,1.80
2022-11-06T22:53:52.289Z,1.80
2022-11-06T22:56:20.106Z,1.73
2022-11-06T22:58:48.271Z,1.80
2022-11-06T23:01:15.652Z,1.80
2022-11-06T23:03:43.044Z,1.90
2022-11-06T23:06:11.948Z,1.70
2022-11-06T23:08:44.186Z,1.70
2022-11-06T23:11:14.342Z,1.80
2022-11-06T23:13:43.763Z,1.60
2022-11-06T23:16:12.338Z,1.70
2022-11-06T23:18:39.859Z,1.90
2022-11-06T23:21:13.290Z,1.73
2022-11-06T23:23:40.934Z,1.90
2022-11-06T23:26:11.919Z,1.80
2022-11-06T23:28:39.354Z,1.77
2022-11-06T23:31:07.207Z,1.57
2022-11-06T23:33:34.597Z,1.80
2022-11-06T23:36:05.263Z,1.77
2022-11-06T23:38:34.314Z,1.70
2022-11-06T23:41:25.352Z,1.50
2022-11-06T23:43:52.735Z,1.90
2022-11-06T23:46:19.246Z,1.80
2022-11-06T23:48:46.629Z,1.67
2022-11-06T23:51:14.392Z,2.07
2022-11-06T23:53:43.130Z,1.70
2022-11-06T23:56:11.390Z,1.83
2022-11-06T23:58:38.875Z,1.70
